Time;durP1;ratioP1;P1;durP2;ratioP2;P2;SDS_P1;SDS_P2;PMS_P1;PMS_P2;Temp;Humidity;BMP_temperature;BMP_pressure;BME280_temperature;BME280_humidity;BME280_pressure;Samples;Min_cycle;Max_cycle;Signal;HPM_P1;HPM_P2
2022/09/29 00:00:51;;;;;;;4.30;2.50;;;;;;;7.93;66.87;99288.28;5064592;28;20173;-31
2022/09/29 00:03:17;;;;;;;3.60;2.17;;;;;;;7.92;67.08;99288.31;5068398;28;20099;-32
2022/09/29 00:05:50;;;;;;;3.80;2.45;;;;;;;7.91;66.80;99289.22;5064769;28;20044;-33
2022/09/29 00:08:17;;;;;;;3.85;2.28;;;;;;;7.90;67.04;99290.97;5069955;28;20157;-31
2022/09/29 00:10:43;;;;;;;4.55;2.80;;;;;;;7.89;67.35;99283.13;5068389;28;20025;-32
2022/09/29 00:13:08;;;;;;;3.95;2.75;;;;;;;7.87;67.26;99284.94;5083179;28;20032;-32
2022/09/29 00:15:33;;;;;;;4.57;2.40;;;;;;;7.88;67.30;99297.16;5066596;28;20467;-33
2022/09/29 00:17:59;;;;;;;4.70;2.50;;;;;;;7.86;67.11;99289.31;5062654;28;20035;-33
2022/09/29 00:20:24;;;;;;;3.65;2.33;;;;;;;7.82;67.31;99288.53;5070357;28;20039;-31
2022/09/29 00:22:50;;;;;;;3.97;2.53;;;;;;;7.85;67.23;99297.22;5069589;28;20039;-33
2022/09/29 00:25:16;;;;;;;3.65;2.53;;;;;;;7.85;67.19;99297.22;5063792;28;20062;-30
2022/09/29 00:27:42;;;;;;;3.95;2.58;;;;;;;7.83;67.63;99287.63;5065002;28;20058;-31
2022/09/29 00:30:07;;;;;;;4.18;2.50;;;;;;;7.82;67.03;99290.28;5068699;28;20020;-31
2022/09/29 00:32:33;;;;;;;4.43;2.60;;;;;;;7.82;67.65;99291.16;5073124;28;20036;-31
2022/09/29 00:34:59;;;;;;;3.67;2.67;;;;;;;7.82;67.34;99301.66;5072951;28;20046;-31
2022/09/29 00:37:24;;;;;;;4.10;2.53;;;;;;;7.82;67.31;99293.78;5068793;28;20039;-31
2022/09/29 00:39:50;;;;;;;4.93;2.70;;;;;;;7.82;67.34;99291.16;5071111;28;20479;-31
2022/09/29 00:42:18;;;;;;;4.40;2.63;;;;;;;7.81;66.94;99289.41;5073122;28;20033;-31
2022/09/29 00:45:05;;;;;;;3.90;2.20;;;;;;;7.83;67.49;99292.00;5069663;28;20036;-31
2022/09/29 00:47:32;;;;;;;5.25;2.72;;;;;;;7.83;67.17;99287.63;5070724;28;20027;-31
2022/09/29 00:50:04;;;;;;;4.45;2.63;;;;;;;7.81;67.61;99286.75;5065029;28;20040;-31
2022/09/29 00:52:39;;;;;;;3.88;2.13;;;;;;;7.82;67.57;99292.91;5069676;28;20024;-31
2022/09/29 00:55:07;;;;;;;4.18;2.33;;;;;;;7.81;67.39;99291.19;5064310;28;20021;-30
2022/09/29 00:57:36;;;;;;;4.75;2.53;;;;;;;7.78;67.06;99292.09;5085631;28;20021;-31
2022/09/29 01:00:05;;;;;;;4.28;2.60;;;;;;;7.80;67.85;99290.31;5072174;28;20024;-31
2022/09/29 01:02:33;;;;;;;4.22;2.75;;;;;;;7.79;67.40;99292.94;5071948;28;20024;-31
2022/09/29 01:04:59;;;;;;;4.65;2.67;;;;;;;7.80;67.39;99300.78;5070542;28;20116;-31
2022/09/29 01:07:26;;;;;;;4.18;2.45;;;;;;;7.78;67.76;99301.72;5072732;28;20055;-31
2022/09/29 01:09:53;;;;;;;4.13;2.50;;;;;;;7.76;67.76;99306.13;5060692;28;20491;-31
2022/09/29 01:12:19;;;;;;;4.10;2.33;;;;;;;7.75;67.97;99305.28;5068903;28;20141;-31
2022/09/29 01:14:45;;;;;;;4.40;3.00;;;;;;;7.74;68.03;99297.44;5066736;28;20060;-31
2022/09/29 01:17:11;;;;;;;4.15;2.60;;;;;;;7.72;67.93;99307.97;5071021;28;20036;-31
2022/09/29 01:19:57;;;;;;;4.45;2.92;;;;;;;7.70;67.75;99304.47;5066052;28;20495;-31
2022/09/29 01:22:44;;;;;;;3.78;2.65;;;;;;;7.69;67.70;99302.75;5068004;28;20486;-31
2022/09/29 01:25:31;;;;;;;4.43;2.70;;;;;;;7.68;68.00;99307.13;5060155;28;20032;-31
2022/09/29 01:28:05;;;;;;;6.15;2.90;;;;;;;7.66;67.86;99301.06;5066624;28;20028;-32
2022/09/29 01:30:48;;;;;;;4.53;2.60;;;;;;;7.67;67.70;99307.19;5067591;28;20035;-31
2022/09/29 01:33:40;;;;;;;5.05;2.72;;;;;;;7.64;67.42;99315.13;5068986;28;20126;-31
2022/09/29 01:36:38;;;;;;;5.03;2.78;;;;;;;7.62;67.50;99314.28;5067318;28;20047;-32
2022/09/29 01:39:18;;;;;;;3.97;2.35;;;;;;;7.60;67.69;99308.19;5063035;28;20486;-31
2022/09/29 01:42:09;;;;;;;3.92;2.58;;;;;;;7.57;67.49;99309.97;5080089;28;20040;-32
2022/09/29 01:44:44;;;;;;;4.63;2.58;;;;;;;7.55;67.53;99309.16;5052333;28;20414;-32
2022/09/29 01:47:17;;;;;;;5.72;3.17;;;;;;;7.51;67.19;99312.72;5068636;28;20129;-31
2022/09/29 01:49:45;;;;;;;4.60;2.55;;;;;;;7.50;67.35;99310.13;5068457;28;20494;-32
2022/09/29 01:52:16;;;;;;;4.22;2.67;;;;;;;7.48;67.50;99315.41;5060179;28;20037;-31
2022/09/29 01:54:51;;;;;;;4.68;2.78;;;;;;;7.46;67.22;99311.09;5059009;28;20021;-31
2022/09/29 01:57:27;;;;;;;5.20;3.15;;;;;;;7.44;67.29;99311.13;5062913;28;20407;-31
2022/09/29 01:59:55;;;;;;;4.60;2.75;;;;;;;7.42;67.28;99307.63;5070781;28;20028;-31
2022/09/29 02:02:33;;;;;;;4.32;2.78;;;;;;;7.39;67.26;99307.69;5064213;28;20024;-31
2022/09/29 02:05:01;;;;;;;5.32;3.00;;;;;;;7.37;67.34;99317.34;5070647;28;20109;-32
2022/09/29 02:07:37;;;;;;;4.75;2.80;;;;;;;7.35;67.59;99319.13;5067203;28;20426;-32
2022/09/29 02:10:13;;;;;;;6.40;2.83;;;;;;;7.31;66.99;99319.19;5067696;28;20107;-32
2022/09/29 02:12:40;;;;;;;5.07;2.90;;;;;;;7.30;67.18;99322.69;5067729;28;20094;-31
2022/09/29 02:15:08;;;;;;;5.18;3.05;;;;;;;7.28;67.21;99327.13;5065463;28;20020;-32
2022/09/29 02:17:36;;;;;;;4.50;2.67;;;;;;;7.26;66.95;99326.28;5064599;28;20028;-32
2022/09/29 02:20:02;;;;;;;4.55;2.70;;;;;;;7.23;66.98;99331.56;5065841;28;20036;-31
2022/09/29 02:22:28;;;;;;;5.70;3.42;;;;;;;7.20;67.19;99321.13;5052608;28;20025;-32
2022/09/29 02:24:54;;;;;;;5.88;3.10;;;;;;;7.17;66.87;99329.91;5070773;28;20020;-32
2022/09/29 02:27:21;;;;;;;6.15;2.95;;;;;;;7.15;67.11;99323.84;5058059;28;20128;-31
2022/09/29 02:29:47;;;;;;;4.78;2.67;;;;;;;7.13;67.34;99322.09;5062804;28;20036;-32
2022/09/29 02:32:13;;;;;;;5.13;3.03;;;;;;;7.11;66.93;99326.53;5068411;28;20036;-31
2022/09/29 02:34:42;;;;;;;4.60;2.97;;;;;;;7.09;67.24;99323.06;5066984;28;20395;-31
2022/09/29 02:37:31;;;;;;;4.72;3.03;;;;;;;7.05;67.22;99328.38;5071170;28;20063;-31
2022/09/29 02:39:57;;;;;;;5.13;2.92;;;;;;;7.02;67.29;99333.66;5071086;28;20035;-31
2022/09/29 02:42:44;;;;;;;4.90;2.90;;;;;;;7.00;67.07;99334.59;5067804;28;20032;-31
2022/09/29 02:45:31;;;;;;;6.35;3.47;;;;;;;6.97;67.22;99330.22;5065651;28;20029;-31
2022/09/29 02:48:18;;;;;;;5.85;3.13;;;;;;;6.94;67.15;99335.53;5060137;28;20036;-31
2022/09/29 02:50:55;;;;;;;4.07;2.90;;;;;;;6.91;67.13;99331.19;5052616;28;20111;-32
2022/09/29 02:53:46;;;;;;;5.65;2.70;;;;;;;6.90;67.36;99324.22;5059141;28;20059;-31
2022/09/29 02:56:25;;;;;;;4.72;3.10;;;;;;;6.87;67.40;99328.66;5059970;28;20025;-32
2022/09/29 02:59:12;;;;;;;4.35;2.80;;;;;;;6.85;67.04;99333.03;5063245;28;20395;-31
2022/09/29 03:01:47;;;;;;;4.90;3.20;;;;;;;6.82;67.04;99328.72;5069583;28;20395;-32
2022/09/29 03:04:13;;;;;;;5.65;3.35;;;;;;;6.80;67.27;99327.88;5067965;28;20021;-31
2022/09/29 03:06:38;;;;;;;5.50;3.03;;;;;;;6.75;66.92;99327.97;5068474;28;20028;-31
2022/09/29 03:09:03;;;;;;;6.18;3.42;;;;;;;6.73;67.14;99337.59;5056545;28;20287;-32
2022/09/29 03:11:28;;;;;;;5.20;2.95;;;;;;;6.70;67.21;99342.88;5067236;28;20056;-31
2022/09/29 03:13:54;;;;;;;5.60;3.03;;;;;;;6.69;67.45;99338.53;5069086;28;20052;-31
2022/09/29 03:16:19;;;;;;;5.47;3.15;;;;;;;6.68;67.13;99339.41;5062555;28;20298;-31
2022/09/29 03:18:45;;;;;;;5.15;3.25;;;;;;;6.65;66.91;99339.47;5067486;28;20063;-31
2022/09/29 03:21:10;;;;;;;4.95;2.90;;;;;;;6.62;67.00;99334.25;5069288;28;20048;-31
2022/09/29 03:23:36;;;;;;;5.22;2.83;;;;;;;6.61;66.78;99343.00;5067264;28;20067;-31
2022/09/29 03:26:01;;;;;;;5.35;3.13;;;;;;;6.60;67.11;99341.28;5067614;28;20481;-32
2022/09/29 03:28:26;;;;;;;5.13;3.38;;;;;;;6.56;67.01;99348.31;5066903;28;20044;-32
2022/09/29 03:30:54;;;;;;;6.80;3.20;;;;;;;6.52;66.81;99344.88;5067866;28;20497;-32
2022/09/29 03:33:19;;;;;;;5.47;3.45;;;;;;;6.51;67.06;99343.13;5068838;28;20286;-31
2022/09/29 03:35:44;;;;;;;5.03;3.00;;;;;;;6.48;67.39;99347.56;5062936;28;20047;-32
2022/09/29 03:38:10;;;;;;;5.55;3.35;;;;;;;6.46;67.15;99350.19;5064920;28;20063;-31
2022/09/29 03:40:35;;;;;;;6.25;3.58;;;;;;;6.44;67.21;99359.84;5063841;28;20027;-31
2022/09/29 03:43:00;;;;;;;5.07;2.80;;;;;;;6.40;67.26;99351.13;5068150;28;20107;-32
2022/09/29 03:45:26;;;;;;;5.68;3.35;;;;;;;6.38;66.95;99346.81;5068722;28;20339;-31
2022/09/29 03:47:51;;;;;;;5.65;3.10;;;;;;;6.36;66.86;99353.81;5064280;28;20079;-32
2022/09/29 03:50:17;;;;;;;5.20;2.97;;;;;;;6.33;67.46;99359.97;5070038;28;20074;-31
2022/09/29 03:52:42;;;;;;;5.03;3.10;;;;;;;6.32;66.77;99352.13;5051578;28;20025;-32
2022/09/29 03:55:08;;;;;;;5.40;3.05;;;;;;;6.29;67.60;99364.38;5060528;28;20017;-31
2022/09/29 03:57:33;;;;;;;7.03;3.63;;;;;;;6.26;66.65;99358.28;5061981;28;20112;-31
2022/09/29 03:59:58;;;;;;;7.77;3.27;;;;;;;6.24;66.94;99367.94;5065069;28;20020;-32
2022/09/29 04:02:24;;;;;;;5.78;3.28;;;;;;;6.22;67.29;99367.97;5066545;28;20279;-31
2022/09/29 04:04:49;;;;;;;6.18;3.47;;;;;;;6.20;67.38;99369.72;5073274;28;20056;-32
2022/09/29 04:07:14;;;;;;;5.68;3.15;;;;;;;6.18;67.35;99363.66;5074048;28;20028;-31
2022/09/29 04:09:40;;;;;;;5.78;3.28;;;;;;;6.16;67.06;99368.03;5055589;28;20036;-31
2022/09/29 04:12:05;;;;;;;5.78;3.22;;;;;;;6.15;66.93;99367.16;5067472;28;20036;-32
2022/09/29 04:14:30;;;;;;;5.95;3.80;;;;;;;6.14;66.94;99368.03;5068360;28;20059;-31
2022/09/29 04:16:56;;;;;;;5.80;3.38;;;;;;;6.12;67.47;99375.06;5073730;28;20036;-32
2022/09/29 04:19:21;;;;;;;5.65;3.10;;;;;;;6.10;67.13;99379.44;5072817;28;20032;-31
2022/09/29 04:21:46;;;;;;;5.78;3.20;;;;;;;6.08;67.17;99372.47;5063673;28;20040;-31
2022/09/29 04:24:12;;;;;;;5.25;3.22;;;;;;;6.06;67.35;99384.75;5072188;28;20368;-31
2022/09/29 04:26:38;;;;;;;6.40;3.20;;;;;;;6.02;67.18;99387.34;5069842;28;20101;-32
2022/09/29 04:29:04;;;;;;;5.47;3.30;;;;;;;6.01;67.23;99388.22;5060311;28;20391;-31
2022/09/29 04:31:29;;;;;;;5.65;3.22;;;;;;;5.98;66.95;99383.03;5065338;28;20021;-31
2022/09/29 04:33:55;;;;;;;4.77;3.00;;;;;;;5.98;67.33;99390.00;5073276;28;20035;-32
2022/09/29 04:36:20;;;;;;;5.13;2.90;;;;;;;5.96;66.96;99391.75;5067869;28;20287;-31
2022/09/29 04:38:47;;;;;;;5.78;3.00;;;;;;;5.94;66.97;99401.41;5072860;28;20286;-31
2022/09/29 04:41:12;;;;;;;5.15;3.38;;;;;;;5.92;67.11;99393.56;5069430;28;20391;-31
2022/09/29 04:43:38;;;;;;;4.68;2.85;;;;;;;5.90;67.23;99390.97;5073336;28;20032;-31
2022/09/29 04:46:05;;;;;;;4.93;2.70;;;;;;;5.88;67.17;99394.47;5069350;28;20150;-31
2022/09/29 04:48:30;;;;;;;5.43;3.03;;;;;;;5.87;67.71;99387.53;5072706;28;20044;-31
2022/09/29 04:50:55;;;;;;;5.70;2.90;;;;;;;5.86;67.36;99397.09;5064101;28;20513;-31
2022/09/29 04:53:21;;;;;;;5.40;3.38;;;;;;;5.84;67.19;99398.00;5072174;28;20170;-31
2022/09/29 04:55:46;;;;;;;4.82;2.95;;;;;;;5.83;67.48;99393.66;5072576;28;20450;-31
2022/09/29 04:58:12;;;;;;;4.60;2.90;;;;;;;5.81;67.43;99398.03;5072618;28;20028;-31
2022/09/29 05:00:38;;;;;;;5.13;3.00;;;;;;;5.79;67.58;99398.06;5073422;28;20471;-31
2022/09/29 05:03:03;;;;;;;7.38;3.03;;;;;;;5.78;67.33;99394.56;5070018;28;20021;-31
2022/09/29 05:05:28;;;;;;;4.50;2.93;;;;;;;5.77;66.83;99403.28;5065879;28;20533;-31
2022/09/29 05:07:54;;;;;;;6.45;3.22;;;;;;;5.75;67.43;99405.06;5066667;28;20781;-31
2022/09/29 05:10:19;;;;;;;5.93;3.55;;;;;;;5.73;67.59;99403.34;5069106;28;20479;-31
2022/09/29 05:12:49;;;;;;;6.85;3.35;;;;;;;5.71;67.27;99398.16;5066899;28;20290;-31
2022/09/29 05:15:15;;;;;;;6.15;3.60;;;;;;;5.70;67.25;99396.38;5069325;28;20149;-31
2022/09/29 05:17:41;;;;;;;6.18;3.97;;;;;;;5.68;67.59;99408.63;5070503;28;20445;-31
2022/09/29 05:20:06;;;;;;;7.20;3.60;;;;;;;5.68;67.90;99400.78;5072785;28;20028;-31
2022/09/29 05:22:32;;;;;;;6.65;3.65;;;;;;;5.69;67.53;99410.34;5074064;28;20183;-31
2022/09/29 05:24:57;;;;;;;6.00;3.58;;;;;;;5.69;67.99;99407.75;5073833;28;20115;-31
2022/09/29 05:27:22;;;;;;;6.63;4.28;;;;;;;5.65;67.98;99404.31;5072723;28;20089;-31
2022/09/29 05:29:48;;;;;;;6.65;3.45;;;;;;;5.65;67.94;99412.16;5068915;28;20036;-31
2022/09/29 05:32:13;;;;;;;6.22;3.38;;;;;;;5.67;68.31;99406.03;5069341;28;20476;-31
2022/09/29 05:34:39;;;;;;;7.68;3.78;;;;;;;5.66;68.46;99413.00;5063661;28;20456;-31
2022/09/29 05:37:04;;;;;;;6.72;3.63;;;;;;;5.64;68.09;99412.16;5072651;28;20028;-31
2022/09/29 05:39:33;;;;;;;6.32;3.50;;;;;;;5.62;68.64;99411.28;5074121;28;20705;-31
2022/09/29 05:41:58;;;;;;;6.78;4.03;;;;;;;5.62;68.21;99409.56;5073859;28;20023;-31
2022/09/29 05:44:23;;;;;;;6.78;4.00;;;;;;;5.63;68.20;99416.50;5073751;28;20383;-31
2022/09/29 05:46:49;;;;;;;6.93;3.70;;;;;;;5.63;68.54;99418.25;5073599;28;20280;-31
2022/09/29 05:49:14;;;;;;;7.68;3.97;;;;;;;5.60;68.45;99416.53;5046278;28;20025;-32
2022/09/29 05:51:39;;;;;;;8.93;4.53;;;;;;;5.59;68.52;99424.41;5068951;28;20038;-31
2022/09/29 05:54:05;;;;;;;6.72;3.75;;;;;;;5.62;69.03;99422.63;5072172;28;20510;-31
2022/09/29 05:56:30;;;;;;;7.28;3.80;;;;;;;5.61;68.27;99422.66;5073149;28;20025;-31
2022/09/29 05:58:55;;;;;;;6.55;3.45;;;;;;;5.62;68.55;99433.09;5073169;28;20479;-32
2022/09/29 06:01:25;;;;;;;5.80;3.35;;;;;;;5.64;68.96;99427.84;5066103;28;20067;-31
2022/09/29 06:03:53;;;;;;;7.82;3.70;;;;;;;5.62;68.72;99424.38;5071752;28;20028;-31
2022/09/29 06:06:23;;;;;;;6.05;3.40;;;;;;;5.63;68.98;99426.97;5070287;28;20028;-31
2022/09/29 06:08:48;;;;;;;;;;;;;;;5.65;68.97;99434.81;5066629;28;20024;-32
2022/09/29 06:11:16;;;;;;;5.90;3.80;;;;;;;5.66;69.14;99426.06;5063103;28;20397;-31
2022/09/29 06:13:44;;;;;;;6.63;3.60;;;;;;;5.67;68.50;99422.56;5053335;28;20100;-31
2022/09/29 06:16:10;;;;;;;5.93;3.35;;;;;;;5.67;68.47;99427.81;5053058;28;20017;-31
2022/09/29 06:18:36;;;;;;;6.72;4.05;;;;;;;5.69;69.22;99427.78;5059844;28;20077;-31
2022/09/29 06:21:02;;;;;;;6.93;3.75;;;;;;;5.70;68.83;99433.00;5072916;28;20025;-32
2022/09/29 06:23:28;;;;;;;6.43;3.45;;;;;;;5.71;69.11;99426.91;5072084;28;20031;-31
2022/09/29 06:26:03;;;;;;;7.47;4.15;;;;;;;5.70;68.91;99427.78;5057994;28;20033;-32
2022/09/29 06:28:29;;;;;;;6.15;3.55;;;;;;;5.72;68.99;99431.25;5059530;28;20438;-31
2022/09/29 06:31:19;;;;;;;5.85;3.88;;;;;;;5.73;68.86;99433.00;5073005;28;20103;-31
2022/09/29 06:33:44;;;;;;;6.22;3.88;;;;;;;5.74;69.14;99432.09;5064814;28;20039;-31
2022/09/29 06:39:04;;;;;;;6.25;3.63;;;;;;;5.75;69.23;99438.22;5060119;28;20090;-32
2022/09/29 06:41:30;;;;;;;5.43;3.45;;;;;;;5.75;69.35;99428.63;5052558;28;20029;-31
2022/09/29 06:43:56;;;;;;;5.60;3.10;;;;;;;5.78;69.69;99436.41;5053058;28;20044;-32
2022/09/29 06:46:21;;;;;;;5.93;3.33;;;;;;;5.78;69.87;99436.41;5052444;28;20104;-31
2022/09/29 06:48:47;;;;;;;5.68;3.60;;;;;;;5.81;69.68;99435.56;5052410;28;20399;-32
2022/09/29 06:51:13;;;;;;;5.93;3.28;;;;;;;5.84;69.78;99432.03;5065943;28;20040;-31
2022/09/29 06:53:39;;;;;;;5.13;3.03;;;;;;;5.85;69.95;99431.13;5072083;28;20144;-32
2022/09/29 06:56:05;;;;;;;5.80;3.03;;;;;;;5.88;69.47;99431.13;5071622;28;20028;-31
2022/09/29 06:58:30;;;;;;;5.22;3.20;;;;;;;5.89;69.47;99441.56;5072447;28;20032;-31
2022/09/29 07:00:59;;;;;;;4.68;2.75;;;;;;;5.91;69.70;99438.94;5072990;28;20023;-31
2022/09/29 07:03:25;;;;;;;5.65;3.45;;;;;;;5.94;69.59;99435.41;5071680;28;20365;-31
2022/09/29 07:05:50;;;;;;;5.57;3.20;;;;;;;5.95;70.33;99437.16;5065765;28;20477;-31
2022/09/29 07:08:15;;;;;;;5.95;3.35;;;;;;;5.98;70.21;99442.34;5055378;28;20506;-31
2022/09/29 07:10:41;;;;;;;5.38;3.00;;;;;;;6.00;70.44;99436.22;5071555;28;20039;-31
2022/09/29 07:13:08;;;;;;;5.68;3.40;;;;;;;6.03;70.22;99441.47;5069968;28;20091;-31
2022/09/29 07:15:34;;;;;;;5.15;3.28;;;;;;;6.07;70.33;99433.59;5070491;28;20017;-31
2022/09/29 07:18:00;;;;;;;4.85;2.90;;;;;;;6.11;70.54;99443.13;5070838;28;20104;-32
2022/09/29 07:20:27;;;;;;;5.13;2.85;;;;;;;6.13;70.73;99438.72;5061293;28;20052;-31
2022/09/29 07:22:52;;;;;;;5.80;3.28;;;;;;;6.16;70.68;99436.09;5067076;28;20039;-32
2022/09/29 07:25:18;;;;;;;5.60;3.25;;;;;;;6.21;70.74;99442.16;5049790;28;20021;-31
2022/09/29 07:27:43;;;;;;;6.05;3.70;;;;;;;6.25;70.21;99445.59;5057455;28;20085;-32
2022/09/29 07:30:10;;;;;;;5.22;3.33;;;;;;;6.29;71.06;99445.56;5070293;28;20446;-32
2022/09/29 09:12:10;;;;;;;9.45;5.38;;;;;;;9.60;70.10;99502.88;6133851;23;20056;-30
2022/09/29 09:14:51;;;;;;;9.75;5.35;;;;;;;9.74;70.20;99497.28;5474735;23;15436353;-29
2022/09/29 09:54:41;;;;;;;13.52;7.85;;;;;;;11.83;73.81;99505.50;6120129;23;20024;-30
2022/09/29 10:07:16;;;;;;;16.52;8.50;;;;;;;12.31;71.46;99511.84;6086287;23;20033;-30
2022/09/29 10:26:38;;;;;;;;;;;;;;;12.84;70.77;99515.25;6094263;23;20174;-30
2022/09/29 10:30:09;;;;;;;15.25;7.78;;;;;;;12.92;69.73;99520.25;6045367;23;20444;-30
2022/09/29 10:46:20;;;;;;;10.70;7.30;;;;;;;13.14;68.37;99533.53;6093848;23;20020;-30
2022/09/29 10:50:03;;;;;;;10.52;7.10;;;;;;;13.17;67.75;99520.19;6094012;23;20022;-30
2022/09/29 10:53:22;;;;;;;9.52;6.47;;;;;;;13.19;68.24;99525.41;5979605;24;20016;-30
2022/09/29 11:00:48;;;;;;;9.27;6.45;;;;;;;13.31;69.36;99521.44;5896477;24;20051;-30
2022/09/29 11:07:37;;;;;;;6.60;5.30;;;;;;;13.47;69.30;99522.56;5897066;24;20083;-30
2022/09/29 11:21:22;;;;;;;5.38;4.03;;;;;;;13.82;69.04;99524.75;5814582;24;20030;-30
2022/09/29 11:25:00;;;;;;;6.40;4.30;;;;;;;13.93;69.06;99534.91;5815897;24;20050;-30
2022/09/29 11:31:33;;;;;;;7.70;4.47;;;;;;;14.13;68.40;99535.00;5838667;24;20063;-30
2022/09/29 11:38:21;;;;;;;6.88;4.40;;;;;;;14.34;68.43;99538.53;5896496;24;20040;-30
2022/09/29 11:40:50;;;;;;;5.30;3.83;;;;;;;14.42;68.00;99538.19;5959367;23;20153;-30
2022/09/29 11:43:33;;;;;;;6.93;4.32;;;;;;;14.47;67.22;99539.69;5983261;23;20007;-30
2022/09/29 11:49:58;;;;;;;6.00;4.20;;;;;;;14.61;66.58;99533.78;6036252;23;20033;-30
2022/09/29 11:53:37;;;;;;;6.65;4.20;;;;;;;14.69;66.30;99538.75;5950629;24;20174;-30
2022/09/29 12:17:51;;;;;;;7.07;4.80;;;;;;;15.40;65.80;99536.47;5924178;24;19955;-30
2022/09/29 12:24:30;;;;;;;6.55;4.90;;;;;;;15.58;64.50;99529.44;5926521;24;20100;-30
2022/09/29 12:27:52;;;;;;;5.43;4.53;;;;;;;15.71;64.81;99534.97;5926496;24;20402;-30
2022/09/29 12:38:19;;;;;;;5.43;3.72;;;;;;;16.00;63.58;99530.06;5844529;24;20434;-30
2022/09/29 12:45:28;;;;;;;5.82;4.40;;;;;;;16.22;62.69;99525.47;5891675;24;20052;-30
2022/09/29 12:52:39;;;;;;;6.93;4.30;;;;;;;16.39;62.18;99524.59;5898612;24;20028;-30
2022/09/29 13:02:48;;;;;;;5.30;3.88;;;;;;;16.82;62.64;99528.59;5869547;24;20094;-30
2022/09/29 13:09:40;;;;;;;6.28;3.72;;;;;;;17.09;62.48;99520.06;5816673;24;20045;-30
2022/09/29 13:12:46;;;;;;;4.28;3.45;;;;;;;17.21;62.53;99527.41;5818476;24;20061;-30
2022/09/29 13:16:17;;;;;;;5.00;3.80;;;;;;;17.35;62.29;99523.09;5897039;24;20010;-31
2022/09/29 13:22:45;;;;;;;4.07;3.30;;;;;;;17.59;61.52;99525.31;5898203;24;20069;-30
2022/09/29 13:29:46;;;;;;;3.67;2.97;;;;;;;17.83;60.66;99529.25;5897785;24;20017;-30
2022/09/29 13:43:41;;;;;;;3.42;2.50;;;;;;;18.25;59.84;99520.66;5863198;24;20071;-30
2022/09/29 13:57:06;;;;;;;4.32;2.55;;;;;;;18.61;58.85;99528.34;5777585;24;20561;-30
2022/09/29 14:00:38;;;;;;;3.50;2.75;;;;;;;18.66;58.10;99528.91;5791273;24;20015;-30
2022/09/29 14:23:44;;;;;;;2.97;2.10;;;;;;;18.93;56.77;99550.38;6035636;23;20027;-31
2022/09/29 14:26:48;;;;;;;2.95;2.28;;;;;;;18.92;56.40;99554.03;6087760;23;20053;-30
2022/09/29 14:29:27;;;;;;;3.15;2.30;;;;;;;18.84;56.57;99554.47;6125033;23;20018;-30
2022/09/29 14:32:33;;;;;;;2.63;2.08;;;;;;;18.77;55.92;99552.31;6123680;23;20005;-30
2022/09/29 14:39:26;;;;;;;3.38;2.55;;;;;;;18.55;54.35;99559.81;6035421;23;20026;-30
2022/09/29 14:55:40;;;;;;;;;;;;;;;18.38;56.21;99566.16;5952891;24;20073;-30
2022/09/29 14:59:11;;;;;;;3.80;2.30;;;;;;;18.38;56.31;99568.84;5833298;24;19939;-30
2022/09/29 15:05:38;;;;;;;;;;;;;;;18.27;56.18;99574.78;5897464;24;20538;-30
2022/09/29 15:12:03;;;;;;;3.25;2.20;;;;;;;18.25;56.82;99574.03;5912153;23;20095;-31
2022/09/29 15:15:32;;;;;;;3.80;2.47;;;;;;;18.21;56.58;99565.34;6035173;23;20088;-30
2022/09/29 15:19:05;;;;;;;3.70;2.53;;;;;;;18.15;56.54;99567.50;5924283;24;20055;-30
2022/09/29 15:22:07;;;;;;;3.42;2.70;;;;;;;18.11;56.51;99573.97;5929026;23;20460;-30
2022/09/29 15:24:54;;;;;;;3.00;2.20;;;;;;;18.05;57.52;99575.16;6004057;23;20019;-31
2022/09/29 15:27:23;;;;;;;3.03;2.35;;;;;;;18.00;57.68;99572.75;6029899;23;20010;-30
2022/09/29 15:29:53;;;;;;;2.90;2.30;;;;;;;17.95;57.85;99569.50;6123271;23;20052;-30
2022/09/29 15:32:26;;;;;;;2.33;1.98;;;;;;;17.89;57.91;99580.50;6122812;23;20006;-30
2022/09/29 15:34:53;;;;;;;4.90;2.40;;;;;;;17.83;57.62;99587.94;6121869;23;20064;-30
2022/09/29 15:37:19;;;;;;;3.38;2.30;;;;;;;17.78;57.43;99595.31;6124737;23;20017;-30
2022/09/29 15:39:50;;;;;;;3.38;2.40;;;;;;;17.74;57.37;99599.09;6123060;23;20006;-30
2022/09/29 15:42:22;;;;;;;2.35;2.00;;;;;;;17.70;56.96;99593.09;6121309;23;20021;-30
2022/09/29 15:45:09;;;;;;;3.88;2.30;;;;;;;17.67;57.13;99608.38;6147223;23;19994;-30
2022/09/29 15:47:39;;;;;;;3.10;2.47;;;;;;;17.61;57.64;99608.75;6122316;23;20010;-30
2022/09/29 15:50:17;;;;;;;3.47;2.60;;;;;;;17.55;57.21;99617.94;6124378;23;20056;-30
2022/09/29 15:52:44;;;;;;;3.42;2.50;;;;;;;17.48;56.89;99622.75;6122442;23;20006;-30
2022/09/29 15:55:15;;;;;;;2.80;2.22;;;;;;;17.42;56.58;99615.09;6125159;23;20033;-30
2022/09/29 15:58:01;;;;;;;3.75;2.92;;;;;;;17.34;56.83;99618.16;6126696;23;20068;-30
2022/09/29 16:00:26;;;;;;;2.78;2.22;;;;;;;17.29;57.11;99618.44;6121006;23;20006;-31
2022/09/29 16:03:18;;;;;;;2.60;2.03;;;;;;;17.23;57.20;99626.75;6125580;23;20016;-30
2022/09/29 16:06:01;;;;;;;4.18;2.70;;;;;;;17.16;56.86;99631.56;6125024;23;20005;-30
2022/09/29 16:08:30;;;;;;;5.05;2.78;;;;;;;17.11;57.37;99632.75;6149712;23;20006;-30
2022/09/29 16:11:01;;;;;;;3.92;3.13;;;;;;;17.04;57.27;99642.84;6126093;23;20429;-30
2022/09/29 16:13:35;;;;;;;3.40;3.08;;;;;;;16.98;57.25;99641.34;6125303;23;19994;-31
2022/09/29 16:16:03;;;;;;;3.92;2.90;;;;;;;16.91;57.62;99643.47;6126771;23;20033;-31
2022/09/29 16:18:34;;;;;;;3.50;2.90;;;;;;;16.85;57.55;99650.91;6121789;23;20001;-30
2022/09/29 16:21:05;;;;;;;4.53;3.05;;;;;;;16.78;57.62;99666.34;6125793;23;20002;-31
2022/09/29 16:23:36;;;;;;;3.00;2.53;;;;;;;16.72;57.69;99664.00;6125494;23;20073;-30
2022/09/29 16:26:05;;;;;;;3.83;2.90;;;;;;;16.66;57.62;99659.84;6123740;23;20005;-31
2022/09/29 16:28:30;;;;;;;4.95;3.00;;;;;;;16.60;57.56;99665.50;6125747;23;20006;-30
2022/09/29 16:31:06;;;;;;;3.53;3.00;;;;;;;16.53;57.87;99673.78;6124587;23;20036;-30
2022/09/29 16:33:32;;;;;;;3.60;3.00;;;;;;;16.48;57.96;99678.47;6125960;23;20329;-31
2022/09/29 16:36:02;;;;;;;4.10;2.70;;;;;;;16.42;58.23;99684.97;6125960;23;20006;-30
2022/09/29 16:38:39;;;;;;;3.50;2.47;;;;;;;16.37;58.70;99686.13;6124287;23;20319;-31
2022/09/29 16:41:42;;;;;;;4.07;2.90;;;;;;;16.29;57.33;99695.34;6123493;23;20005;-30
2022/09/29 16:44:08;;;;;;;3.67;3.00;;;;;;;16.20;56.97;99685.13;6124199;23;20389;-30
2022/09/29 16:46:46;;;;;;;5.80;3.40;;;;;;;16.17;57.24;99695.91;6126404;23;20077;-30
2022/09/29 16:49:35;;;;;;;3.50;2.92;;;;;;;16.08;57.27;99701.69;6123856;23;20006;-30
2022/09/29 16:52:09;;;;;;;4.28;3.05;;;;;;;16.05;57.55;99704.50;6124587;23;20006;-30
2022/09/29 16:54:51;;;;;;;4.15;3.10;;;;;;;15.99;57.74;99697.66;6124038;23;20005;-30
2022/09/29 16:57:30;;;;;;;5.40;3.78;;;;;;;15.92;58.48;99715.69;6123654;23;20525;-30
2022/09/29 17:03:17;;;;;;;5.63;3.70;;;;;;;15.77;59.39;99715.47;6122089;23;20114;-30
2022/09/29 17:05:46;;;;;;;6.60;4.20;;;;;;;15.71;59.36;99721.06;6122324;23;20010;-30
2022/09/29 17:08:25;;;;;;;5.43;3.63;;;;;;;15.65;59.19;99722.19;6121585;23;20056;-30
2022/09/29 17:10:53;;;;;;;4.30;3.35;;;;;;;15.59;59.09;99717.19;6124863;23;20002;-30
2022/09/29 17:13:19;;;;;;;5.25;3.65;;;;;;;15.55;59.17;99720.03;6146631;23;19994;-30
2022/09/29 17:15:50;;;;;;;4.97;3.65;;;;;;;15.49;59.48;99721.16;6123818;23;20065;-30
2022/09/29 17:18:16;;;;;;;4.72;3.30;;;;;;;15.45;59.30;99725.78;6123188;23;20009;-30
2022/09/29 17:20:42;;;;;;;4.32;3.30;;;;;;;15.39;59.31;99721.59;6124513;23;20001;-30
2022/09/29 17:23:07;;;;;;;4.60;3.38;;;;;;;15.36;59.21;99731.47;6123126;23;20064;-30
2022/09/29 17:25:34;;;;;;;4.20;3.28;;;;;;;15.31;59.56;99733.50;6120856;23;20017;-30
2022/09/29 17:28:11;;;;;;;5.32;3.28;;;;;;;15.26;59.62;99729.25;6121020;23;20433;-30
2022/09/29 17:30:49;;;;;;;5.13;3.45;;;;;;;15.23;59.46;99733.81;6122276;23;20052;-30
2022/09/29 17:33:17;;;;;;;4.35;3.08;;;;;;;15.18;59.35;99726.06;6119385;23;20017;-30
2022/09/29 17:35:47;;;;;;;5.22;3.63;;;;;;;15.15;59.26;99731.50;6121864;23;20084;-30
2022/09/29 17:38:14;;;;;;;6.00;3.60;;;;;;;15.11;59.30;99737.88;6124991;23;20033;-30
2022/09/29 17:40:54;;;;;;;5.95;3.22;;;;;;;15.07;59.39;99752.22;6123237;23;20438;-30
2022/09/29 17:43:22;;;;;;;5.13;3.50;;;;;;;15.02;59.48;99749.75;6124253;23;20001;-30
2022/09/29 17:45:48;;;;;;;5.70;3.30;;;;;;;14.95;59.49;99738.53;6121560;23;20013;-30
2022/09/29 17:48:14;;;;;;;5.90;3.60;;;;;;;14.92;59.54;99746.63;6123433;23;19998;-30
2022/09/29 17:50:52;;;;;;;5.75;3.85;;;;;;;14.88;59.73;99753.84;6123955;23;20010;-30
2022/09/29 17:53:18;;;;;;;4.93;3.67;;;;;;;14.84;59.62;99757.56;6147304;23;19998;-30